Date,TemperatureHighF,TemperatureAvgF,TemperatureLowF,DewpointHighF,DewpointAvgF,DewpointLowF,HumidityHigh,HumidityAvg,HumidityLow,PressureMaxIn,PressureMinIn,WindSpeedMaxMPH,WindSpeedAvgMPH,GustSpeedMaxMPH,PrecipitationSumIn
2013-1-1,28.4,18.6,11.3,17.9,12.5,7.2,86,77,62,31.67,31.38,5,0,5,0.00
2013-1-2,25.2,18.7,11.2,14.9,11.5,6.2,83,74,60,31.71,31.56,10,1,10,0.00
2013-1-3,22.9,13.9,8.1,14.1,8.7,4.3,86,80,66,31.67,31.47,4,0,4,0.00
2013-1-4,23.9,15.7,6.3,18.6,11.2,2.3,88,82,71,31.60,31.42,6,0,6,0.00
2013-1-5,30.2,21.9,13.1,21.9,16.8,9.4,91,81,70,31.50,31.22,5,0,5,0.00
2013-1-6,33.6,25.6,18.2,24.8,20.9,14.8,90,82,65,31.23,31.04,11,1,11,0.00
2013-1-7,42.3,35.7,26.9,31.3,26.2,19.4,76,68,61,31.05,30.74,24,6,24,0.00
2013-1-8,44.9,41.2,38.0,33.5,28.2,22.8,68,60,49,31.03,30.75,22,6,22,0.00
2013-1-9,46.4,42.3,33.9,36.2,31.7,27.4,92,68,48,30.85,30.50,24,6,24,0.20
2013-1-10,33.7,29.6,19.5,31.0,27.7,16.5,94,92,88,30.81,30.57,5,0,8,0.03
2013-1-11,19.4,14.3,2.8,16.4,9.7,-1.6,92,81,70,31.38,30.81,0,0,0,0.00
2013-1-12,13.2,4.0,-5.7,6.4,-0.4,-10.9,86,82,71,31.56,31.36,5,0,5,0.00
2013-1-13,17.2,5.2,-2.3,7.0,0.1,-6.9,94,79,61,31.62,31.46,4,0,4,0.00
2013-1-14,23.1,11.5,0.4,14.4,6.7,-3.9,86,81,65,31.61,31.40,16,1,16,0.00
2013-1-15,26.7,17.8,11.8,19.2,13.8,8.5,90,84,71,31.68,31.49,15,0,15,0.01
2013-1-16,23.8,13.8,6.5,19.6,10.4,3.0,90,86,78,31.77,31.59,9,0,9,0.00
2013-1-17,23.8,14.5,6.0,19.5,10.7,2.5,90,85,75,31.77,31.46,9,0,9,0.00
2013-1-18,51.9,29.2,9.9,27.8,15.9,6.0,90,63,26,31.49,31.10,15,1,15,0.04
2013-1-19,35.8,25.8,18.4,21.0,15.2,10.2,78,64,49,31.44,31.18,7,0,7,0.00
2013-1-20,34.4,24.2,15.4,21.2,15.2,8.5,82,68,52,31.55,31.36,10,0,10,0.00
2013-1-21,33.1,21.7,12.6,21.0,14.9,8.7,92,75,57,31.44,31.23,6,0,6,0.00
2013-1-22,30.3,18.9,9.0,18.7,13.0,5.4,90,78,61,31.44,31.24,6,0,6,0.00
2013-1-23,42.2,24.0,15.8,34.1,18.4,11.6,88,79,65,31.26,30.93,17,1,17,0.00
2013-1-24,47.4,40.0,30.0,35.6,29.0,23.6,81,66,43,31.12,30.91,19,3,19,0.01
2013-1-25,43.6,37.2,30.8,35.3,31.0,25.6,89,78,68,31.12,30.81,18,3,18,0.00
2013-1-26,39.4,35.6,31.7,37.2,32.0,29.3,93,87,79,30.82,30.70,14,2,14,0.03
2013-1-27,35.7,30.6,26.9,29.3,25.4,20.5,92,81,60,30.91,30.80,12,1,12,0.00
2013-1-28,36.0,30.1,26.0,24.3,21.5,18.4,81,71,51,30.91,30.73,15,4,17,0.00
2013-1-29,36.8,29.2,26.1,29.4,25.4,21.3,100,86,70,31.12,30.73,14,2,14,0.12
2013-1-30,41.7,37.0,30.8,31.5,29.0,25.3,86,73,62,31.08,30.97,24,2,24,0.01
2013-1-31,45.3,40.3,37.0,34.2,31.5,29.0,76,71,60,31.11,31.01,13,3,13,0.00
2013-2-1,47.7,38.9,30.1,32.2,28.6,24.2,80,67,43,31.37,30.98,18,2,18,0.00
2013-2-2,48.6,34.5,28.5,33.4,26.1,22.5,82,72,44,31.48,31.22,11,2,11,0.00
2013-2-3,49.2,34.6,23.5,33.8,25.9,20.7,91,72,43,31.22,30.98,13,1,13,0.00
2013-2-4,43.3,39.8,35.7,32.3,28.5,26.0,72,64,58,30.98,30.89,15,3,15,0.00
2013-2-5,49.2,39.5,34.4,36.0,30.4,27.0,81,71,43,30.90,30.65,24,2,24,0.00
2013-2-6,43.6,35.0,26.2,32.3,27.5,20.9,90,74,53,31.06,30.80,17,2,17,0.01
2013-2-7,37.0,30.3,25.6,30.4,25.2,20.7,88,81,68,31.03,30.86,9,1,9,0.00
2013-2-8,40.2,32.3,26.1,31.1,27.2,22.9,90,82,65,31.02,30.89,12,1,12,0.00
2013-2-9,38.1,31.4,27.2,28.2,24.3,17.7,93,76,46,31.06,30.87,10,1,11,0.00
2013-2-10,38.2,28.9,23.3,27.5,22.9,17.8,92,79,52,31.22,31.06,6,0,7,0.04
2013-2-11,40.4,28.8,19.9,24.8,19.9,14.1,81,70,49,31.24,31.09,11,2,11,0.00
2013-2-12,40.9,36.2,29.8,29.5,26.6,22.4,76,68,56,31.19,31.06,19,2,19,0.00
2013-2-13,44.1,40.3,37.8,34.0,28.2,20.6,80,62,47,31.16,30.96,21,4,21,0.04
2013-2-14,42.7,37.3,34.1,26.3,24.3,21.5,71,59,46,31.40,31.15,15,2,15,0.00
2013-2-15,50.8,38.3,29.0,31.6,27.6,24.0,84,66,44,31.47,31.24,17,2,17,0.00
2013-2-16,55.1,36.4,24.5,35.2,28.5,21.7,91,75,39,31.25,30.77,37,2,37,0.03
2013-2-17,38.2,33.3,26.0,30.7,24.7,19.5,91,71,49,31.04,30.72,17,3,17,0.02
2013-2-18,45.3,33.7,25.0,25.0,20.2,15.9,86,60,34,31.10,30.72,13,2,13,0.00
2013-2-19,47.8,34.1,26.2,30.8,23.9,18.2,92,69,32,30.72,30.52,15,1,15,0.00
2013-2-20,39.3,32.3,27.6,30.6,25.0,14.5,93,76,46,30.92,30.66,14,1,14,0.10
2013-2-21,39.6,29.4,19.5,24.1,18.3,13.1,78,64,39,31.08,30.90,17,3,17,0.00
2013-2-22,43.0,35.7,28.6,28.8,24.6,21.3,78,65,46,30.97,30.53,25,7,25,0.00
2013-2-23,39.4,31.9,26.5,30.1,21.2,14.7,90,65,48,31.16,30.49,30,3,30,0.01
2013-2-24,41.3,31.2,24.2,21.8,19.2,17.1,78,62,40,31.28,31.09,17,2,17,0.00
2013-2-25,39.5,32.0,26.1,29.1,22.5,17.4,82,68,48,31.10,30.84,20,4,20,0.00
2013-2-26,39.5,32.0,24.6,24.1,20.2,15.9,81,62,45,31.30,30.99,12,2,12,0.00
2013-2-27,47.9,33.6,23.4,23.1,18.2,15.6,74,56,29,31.31,31.17,23,3,23,0.00
2013-2-28,47.0,36.1,26.9,34.0,27.5,17.9,85,71,51,31.35,31.16,12,2,12,0.00
2013-3-1,56.7,43.6,34.4,39.2,34.2,30.9,91,71,48,31.33,31.20,19,2,19,0.00
2013-3-2,57.2,43.9,32.8,38.7,33.7,27.5,88,68,43,31.23,30.78,12,2,12,0.01
2013-3-3,40.7,36.3,30.7,38.3,24.8,13.8,92,65,38,31.05,30.65,29,4,29,0.07
2013-3-4,40.4,30.1,21.1,24.5,19.1,14.4,89,66,35,31.31,31.03,19,2,19,0.01
2013-3-5,44.6,29.8,17.9,25.0,18.7,13.3,92,65,37,31.22,30.85,8,1,8,0.00
2013-3-6,47.4,35.4,28.8,36.1,28.4,20.9,88,76,60,30.86,30.55,26,2,26,0.02
2013-3-7,49.2,38.6,29.1,30.5,23.9,17.1,85,58,30,30.97,30.70,17,3,17,0.00
2013-3-8,47.8,33.2,21.5,25.7,20.7,16.3,83,62,34,31.04,30.83,16,2,16,0.00
2013-3-9,49.0,34.6,22.9,26.7,21.6,17.0,83,61,35,31.35,31.00,18,2,18,0.00
2013-3-10,54.8,38.0,22.8,29.2,22.3,16.9,83,57,23,31.45,31.10,21,2,21,0.00
2013-3-11,50.3,40.0,30.4,31.2,23.2,15.6,84,54,26,31.19,31.02,24,3,24,0.00
2013-3-12,56.3,42.4,30.8,36.1,27.9,17.4,69,57,40,31.17,30.93,21,3,21,0.00
2013-3-13,61.8,50.1,39.9,35.1,31.9,27.5,69,51,28,31.04,30.96,16,3,16,0.00
2013-3-14,70.6,51.3,36.2,38.2,30.8,27.6,72,49,21,31.07,30.78,19,2,19,0.00
2013-3-15,58.3,50.2,38.9,36.0,30.7,26.9,67,48,32,30.94,30.74,23,4,23,0.00
2013-3-16,54.9,44.4,36.5,34.3,30.1,26.5,87,59,36,30.91,30.53,20,3,20,0.02
2013-3-17,38.4,33.2,26.8,34.5,22.9,14.6,88,66,45,31.00,30.43,32,4,32,0.08
2013-3-18,42.9,33.2,27.2,27.2,21.2,15.7,90,62,34,31.06,30.88,22,6,22,0.00
2013-3-19,45.4,32.3,18.7,30.4,22.8,11.8,89,69,47,31.33,30.96,14,2,14,0.03
2013-3-20,57.9,40.4,27.7,40.5,30.8,21.2,85,70,43,30.96,30.36,42,6,42,0.08
2013-3-21,40.7,33.5,25.3,30.1,20.7,13.8,81,61,35,30.98,30.59,20,4,20,0.00
2013-3-22,38.1,28.9,23.4,23.3,20.4,15.2,88,71,40,31.18,30.92,24,2,24,0.00
2013-3-23,38.3,26.6,17.7,22.8,17.7,12.5,89,71,36,31.37,31.16,18,2,18,0.00
2013-3-24,43.6,29.4,19.4,20.6,14.8,6.0,87,59,23,31.42,31.17,10,1,10,0.00
2013-3-25,51.4,33.7,16.8,23.9,16.5,9.0,74,52,27,31.26,30.91,9,1,9,0.00
2013-3-26,57.9,41.9,28.5,31.6,25.2,20.6,79,54,28,30.97,30.76,10,1,10,0.00
2013-3-27,62.4,42.1,27.3,40.1,28.9,20.2,83,62,31,30.97,30.76,19,2,19,0.01
2013-3-28,62.9,44.7,31.4,42.4,35.4,27.7,89,72,36,31.00,30.81,16,1,16,0.01
2013-3-29,56.7,44.2,36.0,42.8,36.8,32.2,92,76,45,31.10,30.92,14,2,14,0.02
2013-3-30,62.1,47.5,33.9,39.4,32.4,26.4,90,61,28,31.22,30.97,7,1,11,0.00
2013-3-31,66.8,46.6,27.1,35.4,28.7,21.0,85,54,22,31.09,30.79,13,2,13,0.00
2013-4-1,67.3,47.9,30.2,40.3,31.9,24.6,86,57,30,30.94,30.72,13,2,13,0.00
2013-4-2,69.0,49.7,33.0,41.1,33.9,26.3,82,57,30,30.99,30.75,16,2,17,0.00
2013-4-3,67.0,52.3,40.6,39.9,35.7,33.2,78,56,29,30.99,30.80,19,2,19,0.00
2013-4-4,65.4,51.3,36.6,45.8,38.4,30.7,84,63,38,30.86,30.57,18,2,18,0.00
2013-4-5,60.2,48.6,39.8,42.7,37.7,31.7,82,67,36,30.78,30.49,22,4,24,0.01
2013-4-6,54.7,45.7,41.4,42.0,36.9,32.3,84,72,48,30.78,30.66,30,4,30,0.06
2013-4-7,51.4,42.1,33.8,42.7,34.7,27.9,92,76,54,30.71,30.40,28,3,28,0.09
2013-4-8,43.2,36.1,26.0,31.7,23.1,15.5,89,61,40,31.19,30.61,30,11,30,0.00
2013-4-9,49.7,33.0,16.4,23.4,17.0,10.0,77,54,31,31.42,31.16,14,2,14,0.00
2013-4-10,56.8,43.4,29.7,44.2,32.3,20.1,84,66,47,31.18,30.67,27,4,27,0.03
2013-4-11,50.1,43.1,34.3,37.7,29.5,21.8,83,60,41,30.99,30.76,19,4,19,0.00
2013-4-12,57.9,42.8,26.5,29.8,24.5,19.6,79,52,26,31.05,30.40,21,2,21,0.00
2013-4-13,46.9,39.2,30.8,37.1,27.3,17.2,88,64,36,30.73,30.28,31,7,31,0.01
2013-4-14,47.4,36.5,30.6,30.5,25.7,19.5,87,66,34,30.83,30.69,23,5,23,0.00
2013-4-15,41.1,32.9,25.4,23.9,15.2,11.3,72,48,37,31.04,30.75,27,9,27,0.00
2013-4-16,41.1,29.7,16.3,19.0,12.1,7.3,69,49,31,31.28,31.03,26,6,26,0.00
2013-4-17,47.9,31.6,14.4,17.5,11.4,6.7,75,46,23,31.45,31.23,15,1,15,0.00
2013-4-18,53.1,40.1,25.3,28.1,20.2,11.9,59,45,32,31.27,31.08,22,4,22,0.00
2013-4-19,57.8,47.8,40.4,38.1,32.1,24.9,70,55,42,31.09,30.71,20,4,20,0.00
2013-4-20,57.9,48.1,39.9,37.1,34.1,30.8,78,60,38,30.97,30.73,21,4,21,0.00
2013-4-21,55.9,42.8,27.5,35.5,31.0,23.6,92,65,36,31.10,30.79,30,7,30,0.00
2013-4-22,44.6,32.5,22.7,23.9,19.1,14.7,86,60,32,31.44,31.10,21,6,21,0.00
2013-4-23,50.7,35.5,19.7,25.2,20.3,13.7,82,57,33,31.40,31.12,12,1,12,0.00
2013-4-24,62.1,44.5,25.5,28.3,23.4,18.2,81,48,23,31.29,30.80,16,2,16,0.05
2013-4-25,68.5,52.2,36.3,34.3,28.0,23.1,68,42,22,30.89,30.69,20,3,20,0.00
2013-4-26,73.2,54.5,36.3,39.0,32.0,27.0,72,46,25,31.05,30.87,23,3,27,0.00
2013-4-27,71.2,57.6,43.0,38.5,32.7,24.7,68,43,18,30.94,30.74,28,5,28,0.00
2013-4-28,60.4,53.9,49.0,41.9,34.1,27.2,66,48,33,30.85,30.68,19,4,29,0.01
2013-4-29,52.0,45.0,35.1,41.0,32.4,22.1,87,63,37,30.82,30.47,36,7,36,0.16
2013-4-30,43.7,36.0,27.2,28.8,22.0,13.9,90,58,36,31.27,30.79,22,4,22,0.00
2013-5-1,54.2,40.0,29.2,30.4,24.3,18.0,90,60,26,31.56,31.26,12,1,12,0.00
2013-5-2,69.3,47.5,25.8,30.5,22.2,13.9,73,43,12,31.59,31.11,14,1,14,0.00
2013-5-3,58.2,49.2,43.7,42.2,34.3,23.3,90,58,40,31.12,31.00,17,2,17,0.01
2013-5-4,60.4,49.6,40.7,42.0,38.6,34.3,92,68,41,31.15,30.93,22,6,22,0.00
2013-5-5,71.9,53.4,33.2,44.8,36.6,28.8,88,57,28,31.01,30.65,20,3,20,0.00
2013-5-6,71.5,55.1,38.7,48.8,38.9,32.4,83,57,29,30.82,30.52,11,1,11,0.00
2013-5-7,77.1,58.6,39.6,46.7,38.5,33.5,84,51,25,30.74,30.57,25,4,25,0.00
2013-5-8,78.0,60.4,41.5,50.5,40.4,34.6,79,51,24,30.88,30.70,16,2,16,0.00
2013-5-9,75.8,60.0,43.6,51.5,42.6,35.3,76,54,32,30.92,30.77,15,2,15,0.00
2013-5-10,80.7,63.1,46.1,51.6,43.8,38.9,81,52,25,31.03,30.83,11,2,12,0.00
2013-5-11,81.0,62.9,46.2,53.0,43.2,37.3,79,52,25,31.03,30.78,33,1,33,0.00
2013-5-12,85.0,68.2,52.6,57.4,46.4,40.6,68,48,24,30.85,30.60,28,3,28,0.00
2013-5-13,85.7,64.8,51.3,55.2,48.0,36.4,81,58,21,30.79,30.33,31,4,31,0.00
2013-5-14,68.8,57.4,45.2,41.2,35.8,30.3,70,46,25,30.90,30.69,21,2,21,0.00
2013-5-15,65.0,52.2,37.6,47.4,38.1,30.7,81,60,40,30.91,30.68,19,2,19,0.00
2013-5-16,63.2,51.6,43.1,47.3,42.6,38.4,93,73,45,30.78,30.63,16,2,16,0.04
2013-5-17,51.7,48.7,45.0,47.7,44.0,39.7,91,84,73,30.79,30.63,5,0,5,0.13
2013-5-18,63.6,52.9,45.5,51.1,44.3,39.2,93,74,48,30.90,30.73,21,3,21,0.01
2013-5-19,60.2,52.2,45.8,46.3,42.4,39.0,84,70,46,31.04,30.85,13,1,13,0.00
2013-5-20,71.6,57.1,43.3,47.4,43.5,39.2,92,64,32,31.12,30.76,13,1,13,0.00
2013-5-21,74.8,58.5,42.0,51.0,43.6,37.1,86,61,34,30.78,30.31,21,1,21,0.16
2013-5-22,58.1,49.2,40.8,49.7,44.2,35.9,92,83,65,30.80,30.30,20,3,20,0.12
2013-5-23,59.8,47.9,39.3,39.3,35.9,29.7,92,66,38,30.87,30.69,21,3,21,0.00
2013-5-24,64.5,50.8,38.7,42.6,36.5,31.2,80,60,33,30.84,30.65,24,3,24,0.00
2013-5-25,66.1,49.8,36.3,43.6,37.3,32.6,89,65,37,30.91,30.74,10,1,10,0.00
2013-5-26,67.5,50.6,36.3,47.7,40.9,32.2,91,71,42,30.84,30.62,15,1,15,0.03
2013-5-27,69.3,55.3,45.2,49.4,44.2,39.5,91,70,37,30.75,30.53,13,1,13,0.08
2013-5-28,63.4,53.6,48.1,51.4,47.5,43.5,98,81,54,30.60,30.51,22,2,22,0.08
2013-5-29,70.3,54.8,42.7,47.4,41.8,37.1,89,65,31,30.61,30.35,20,2,20,0.02
2013-5-30,61.1,52.2,45.6,42.7,38.7,33.7,79,61,40,30.91,30.59,25,3,25,0.00
2013-5-31,65.1,51.8,39.8,43.4,35.9,32.2,83,57,33,31.10,30.90,15,1,15,0.00
2013-6-1,73.1,54.3,35.2,47.0,36.4,29.8,82,55,21,31.16,30.75,7,1,7,0.00
2013-6-2,59.9,51.0,44.8,48.3,42.9,36.1,91,75,55,30.77,30.62,19,1,19,0.25
2013-6-3,67.3,53.8,45.3,49.3,44.5,40.9,92,73,41,30.88,30.72,17,2,20,0.01
2013-6-4,69.3,55.8,44.1,47.9,44.2,40.3,92,68,39,31.03,30.86,12,1,12,0.00
2013-6-5,81.8,60.8,40.4,57.0,43.8,36.3,90,58,25,30.96,30.65,10,1,10,0.00
2013-6-6,84.7,66.7,50.1,56.1,45.9,38.9,78,50,27,30.81,30.58,9,0,9,0.00
2013-6-7,81.6,67.1,53.0,57.3,48.1,42.5,78,53,31,30.69,30.49,18,2,18,0.00
2013-6-8,81.9,69.0,50.6,47.4,40.1,33.5,69,37,20,30.75,30.53,25,2,25,0.00
2013-6-9,85.2,67.4,47.4,52.5,40.7,27.5,77,43,13,30.67,30.43,24,2,25,0.00
2013-6-10,79.5,63.0,43.3,47.8,40.6,35.4,78,47,24,30.64,30.36,18,3,19,0.00
2013-6-11,81.3,63.5,48.7,55.1,44.0,38.7,79,51,27,30.67,30.41,19,2,19,0.00
2013-6-12,72.2,60.2,47.9,50.7,45.9,42.4,83,61,41,30.72,30.60,23,6,23,0.00
2013-6-13,61.3,52.4,44.9,49.5,46.4,40.5,93,81,56,30.91,30.64,17,1,17,0.50
2013-6-14,63.9,52.4,44.7,45.5,42.1,36.8,92,70,40,30.97,30.84,22,2,22,0.03
2013-6-15,80.2,59.0,39.2,48.1,40.3,32.2,88,56,19,30.97,30.64,11,0,11,0.00
2013-6-16,81.2,62.6,43.1,54.8,44.2,36.6,85,54,29,30.84,30.65,16,2,16,0.00
2013-6-17,88.3,67.8,46.5,53.9,46.6,39.2,86,51,18,30.79,30.47,10,1,10,0.00
2013-6-18,81.5,65.0,49.7,59.0,50.1,42.8,81,60,34,30.53,30.32,17,2,17,0.00
2013-6-19,61.9,55.4,50.4,52.6,48.6,42.6,92,78,63,30.63,30.28,14,1,14,0.40
2013-6-20,63.2,53.2,45.4,46.0,41.6,38.5,85,66,46,30.89,30.63,23,6,23,0.00
2013-6-21,70.1,54.8,40.6,47.4,42.0,35.8,93,66,34,30.96,30.76,14,1,14,0.00
2013-6-22,69.8,56.2,42.8,48.9,43.4,39.5,92,65,36,30.89,30.72,13,0,13,0.00
2013-6-23,78.8,59.9,40.0,55.3,44.8,35.8,89,61,28,30.77,30.38,9,0,9,0.00
2013-6-24,73.3,61.1,54.6,58.8,52.8,46.7,94,75,50,30.45,30.29,17,1,17,0.22
2013-6-25,75.1,61.6,53.4,56.6,52.2,45.3,94,74,37,30.63,30.42,16,1,16,0.01
2013-6-26,72.5,60.9,53.8,59.1,53.6,50.9,94,78,49,30.89,30.60,17,2,17,0.07
2013-6-27,88.6,68.4,50.9,62.9,54.7,48.1,94,66,29,30.99,30.78,11,0,11,0.01
2013-6-28,89.8,71.8,54.6,65.8,55.9,48.5,84,60,35,31.00,30.70,10,1,11,0.00
2013-6-29,88.8,71.2,56.7,64.8,58.2,51.5,89,66,39,30.85,30.57,15,1,15,0.00
2013-6-30,93.8,75.4,59.0,65.8,60.5,55.2,93,64,33,30.77,30.61,11,1,11,0.00
2013-7-1,97.3,77.0,57.6,63.4,57.6,52.9,88,56,25,30.82,30.58,13,2,13,0.00
2013-7-2,98.4,77.8,60.8,66.1,58.8,52.0,78,55,27,30.75,30.50,11,1,11,0.00
2013-7-3,95.3,79.6,63.4,65.9,57.5,49.1,78,51,23,30.64,30.44,13,1,13,0.00
2013-7-4,91.0,74.3,59.4,57.7,51.1,41.6,76,49,21,30.60,30.37,13,1,13,0.00
2013-7-5,84.8,70.1,52.5,53.8,46.2,40.7,75,45,27,30.55,30.37,18,2,18,0.00
2013-7-6,85.0,67.2,47.7,50.8,45.5,40.3,82,50,25,30.67,30.43,19,2,19,0.00
2013-7-7,88.5,69.5,49.9,55.4,47.3,41.0,81,49,24,30.65,30.41,18,2,18,0.00
2013-7-8,85.4,70.0,55.0,57.4,49.5,44.7,75,51,25,30.77,30.48,20,3,20,0.00
2013-7-9,87.5,69.2,50.3,57.7,47.9,41.3,84,51,23,30.91,30.67,12,1,12,0.00
2013-7-10,98.8,73.0,50.5,58.2,46.9,38.2,80,43,15,30.80,30.36,26,1,26,0.00
2013-7-11,85.7,71.2,58.6,56.2,49.4,41.5,75,49,24,30.60,30.37,29,2,29,0.01
2013-7-12,83.6,66.2,49.9,57.1,49.4,44.9,91,59,28,30.69,30.45,28,1,28,0.02
2013-7-13,81.4,67.0,49.0,48.1,42.7,34.8,79,45,20,30.80,30.54,14,2,14,0.00
2013-7-14,89.3,68.1,45.8,53.5,42.5,36.3,78,44,17,30.92,30.60,14,1,14,0.00
2013-7-15,94.7,73.0,51.6,55.5,44.8,35.7,73,41,14,30.70,30.46,21,2,21,0.00
2013-7-16,87.9,69.1,52.6,63.0,51.6,40.9,76,56,32,30.75,30.55,23,2,23,0.02
2013-7-17,95.8,76.4,58.6,67.4,58.1,48.8,86,56,29,30.76,30.51,17,1,17,0.00
2013-7-18,93.4,76.0,55.3,55.3,47.5,35.7,80,42,16,30.85,30.64,8,0,9,0.00
2013-7-19,94.4,71.8,53.2,55.8,44.0,35.6,74,40,17,30.84,30.59,10,1,10,0.00
2013-7-20,96.2,73.4,52.3,55.2,44.3,37.0,71,39,14,30.73,30.43,7,0,7,0.00
2013-7-21,96.8,74.1,54.1,50.3,41.2,28.1,59,35,9,30.62,30.39,14,0,14,0.00
2013-7-22,94.8,73.3,50.6,51.9,40.6,30.9,67,36,12,30.63,30.47,14,1,14,0.00
2013-7-23,93.8,73.0,50.7,55.4,42.9,35.0,64,37,14,30.80,30.57,10,1,10,0.00
2013-7-24,97.3,74.4,53.0,52.1,43.3,35.5,69,37,12,30.75,30.52,11,0,11,0.00
2013-7-25,94.9,74.2,53.4,57.8,46.1,38.4,69,40,17,30.77,30.59,10,1,10,0.00
2013-7-26,96.8,73.5,54.4,54.5,44.1,32.2,73,39,13,30.83,30.61,17,1,17,0.00
2013-7-27,92.3,72.7,56.3,57.4,43.5,27.1,72,39,12,30.71,30.48,16,1,16,0.00
2013-7-28,88.2,69.3,50.5,48.0,41.6,34.2,75,40,15,30.64,30.42,16,1,16,0.00
2013-7-29,87.8,67.7,49.6,47.7,39.1,28.4,65,39,12,30.71,30.51,18,1,18,0.00
2013-7-30,83.1,67.8,53.3,57.9,43.8,33.2,66,43,27,30.83,30.61,17,2,17,0.00
2013-7-31,85.5,67.8,49.1,51.9,45.0,39.3,75,47,22,30.93,30.61,16,1,16,0.00
2013-8-1,68.8,60.9,53.7,60.8,51.2,41.6,92,71,50,30.82,30.61,14,1,14,0.16
2013-8-2,75.8,59.5,47.1,54.7,49.1,44.3,93,71,35,30.85,30.63,14,1,14,0.00
2013-8-3,77.4,60.7,45.6,53.9,49.0,42.8,94,68,38,30.95,30.75,19,2,19,0.00
2013-8-4,88.5,66.8,48.3,53.9,47.4,38.7,91,56,19,30.89,30.64,15,1,15,0.00
2013-8-5,83.3,64.6,51.7,57.5,47.1,40.7,81,55,28,30.78,30.57,14,1,14,0.00
2013-8-6,87.8,70.9,53.0,56.3,48.7,43.5,77,49,24,30.76,30.61,14,1,14,0.00
2013-8-7,90.2,69.9,51.0,56.2,47.8,42.3,82,49,21,30.76,30.53,11,1,11,0.00
2013-8-8,87.4,69.0,50.4,53.2,45.5,39.7,75,46,23,30.74,30.55,15,2,16,0.00
2013-8-9,85.5,68.1,57.1,59.8,52.0,44.0,76,58,35,30.76,30.52,37,2,37,0.20
2013-8-10,86.0,67.7,51.0,59.7,51.3,44.0,85,59,31,30.83,30.55,17,1,17,0.00
2013-8-11,78.9,66.0,54.0,58.3,51.1,43.7,78,59,39,30.75,30.64,13,1,13,0.00
2013-8-12,84.5,66.3,53.4,57.1,48.8,43.9,79,56,29,30.81,30.61,16,2,16,0.04
2013-8-13,85.5,68.9,54.9,55.9,49.9,43.7,80,53,28,30.88,30.67,14,1,14,0.00
2013-8-14,88.6,68.1,51.7,56.9,47.7,42.2,73,51,25,30.85,30.60,14,2,14,0.00
2013-8-15,96.5,72.8,53.3,54.1,45.5,34.7,74,42,13,30.75,30.49,16,1,16,0.00
2013-8-16,94.0,71.8,52.6,57.2,45.3,37.6,68,41,18,30.72,30.52,11,0,11,0.00
2013-8-17,88.5,72.8,56.3,59.3,50.9,45.9,77,49,28,30.79,30.55,14,1,14,0.00
2013-8-18,90.6,73.1,55.8,57.0,49.7,41.8,77,47,21,30.78,30.59,18,1,18,0.00
2013-8-19,91.8,70.7,51.4,53.1,44.2,35.4,81,44,17,30.80,30.56,17,1,17,0.00
2013-8-20,89.0,70.7,54.3,54.9,46.0,39.5,73,44,21,30.77,30.57,20,1,20,0.00
2013-8-21,85.5,65.0,48.3,51.2,43.4,37.7,73,49,21,30.86,30.66,11,1,11,0.00
2013-8-22,81.6,66.8,53.9,56.0,46.4,37.7,72,49,28,30.83,30.53,12,0,12,0.00
2013-8-23,88.2,71.8,57.9,59.0,52.6,47.8,78,53,29,30.68,30.37,23,1,23,0.01
2013-8-24,87.7,69.2,53.0,56.5,50.3,44.6,83,54,25,30.64,30.40,26,1,26,0.01
2013-8-25,87.8,69.4,59.0,58.2,51.0,43.2,83,54,29,30.68,30.39,25,2,25,0.01
2013-8-26,82.2,66.4,51.5,58.7,53.0,46.6,93,66,39,30.82,30.54,13,1,13,0.00
2013-8-27,84.3,66.2,49.4,58.1,48.9,43.3,84,56,29,30.77,30.53,14,1,18,0.00
2013-8-28,85.8,67.0,54.0,61.5,53.6,46.6,79,64,37,30.77,30.55,11,0,11,0.00
2013-8-29,91.8,67.9,54.1,64.1,54.3,47.8,88,65,23,30.79,30.50,23,1,23,0.00
2013-8-30,83.0,66.0,50.9,59.8,52.5,47.0,94,66,32,30.91,30.67,22,2,22,0.00
2013-8-31,84.9,65.5,50.2,57.3,49.6,43.3,85,59,32,30.91,30.64,13,2,13,0.00
2013-9-1,90.8,69.6,49.4,61.7,49.9,42.0,79,52,22,30.80,30.49,7,0,7,0.00
2013-9-2,80.7,70.7,56.0,58.6,51.9,41.6,72,52,34,30.66,30.48,12,1,12,0.00
2013-9-3,76.5,69.1,58.6,64.6,56.6,47.9,81,65,46,30.78,30.64,10,1,10,0.01
2013-9-4,89.3,72.0,54.9,62.4,55.3,50.4,92,60,27,30.86,30.61,7,1,7,0.00
2013-9-5,77.8,66.8,59.5,64.6,57.9,50.5,92,74,53,30.77,30.61,23,2,23,0.24
2013-9-6,79.2,65.5,53.8,63.8,57.2,52.1,96,77,51,30.82,30.61,14,2,14,0.00
2013-9-7,84.4,66.2,52.0,57.7,51.5,47.7,90,62,29,30.85,30.58,12,1,12,0.00
2013-9-8,72.1,58.8,49.7,56.4,48.3,44.0,86,69,45,30.79,30.69,16,2,16,0.00
2013-9-9,79.4,63.0,51.9,55.8,49.1,43.8,85,63,35,30.83,30.67,11,1,11,0.00
2013-9-10,84.5,63.9,47.8,55.6,47.2,43.1,86,59,24,30.92,30.69,7,0,7,0.00
2013-9-11,86.5,65.8,46.9,55.7,47.3,41.7,88,56,26,31.01,30.74,17,1,17,0.00
2013-9-12,86.7,68.8,50.2,56.3,49.0,43.7,81,52,27,30.91,30.57,9,0,9,0.00
2013-9-13,87.8,71.2,57.3,60.8,53.0,49.4,80,55,30,30.66,30.39,13,1,14,0.00
2013-9-14,81.9,67.8,56.8,58.9,51.7,44.6,87,60,30,30.72,30.49,23,3,23,0.00
2013-9-15,85.9,66.6,50.0,58.5,50.3,43.8,85,59,32,30.79,30.44,19,1,19,0.01
2013-9-16,85.5,68.0,54.6,62.4,52.4,40.9,91,63,22,30.58,30.37,18,2,18,0.11
2013-9-17,65.0,55.6,46.6,55.4,49.2,42.8,91,80,64,30.58,30.35,12,0,12,0.10
2013-9-18,59.0,52.9,48.1,48.2,42.8,38.1,88,69,49,30.92,30.47,14,2,15,0.04
2013-9-19,70.5,55.1,42.7,42.8,38.7,34.1,80,57,28,31.09,30.81,10,1,10,0.00
2013-9-20,82.1,55.4,37.2,50.3,38.6,31.9,87,58,22,30.89,30.43,7,0,8,0.00
2013-9-21,71.3,56.5,41.8,47.9,39.7,31.7,79,54,38,30.51,30.34,16,2,16,0.00
2013-9-22,61.4,52.4,48.3,53.2,47.1,43.0,95,82,60,30.56,30.37,16,1,16,0.12
2013-9-23,62.6,53.0,45.2,46.3,41.9,35.4,86,68,38,30.80,30.52,17,2,17,0.01
2013-9-24,49.5,46.2,43.5,47.1,43.1,39.4,96,89,79,30.78,30.61,6,0,6,0.29
2013-9-25,49.4,45.1,42.5,44.5,42.2,41.1,95,90,76,30.62,30.51,17,3,17,0.27
2013-9-26,51.7,44.5,36.3,41.7,37.2,32.0,91,76,52,30.93,30.61,20,4,20,0.04
2013-9-27,52.9,42.8,30.3,39.9,34.2,28.0,94,73,48,31.02,30.78,14,2,14,0.01
2013-9-28,61.0,53.0,46.0,46.8,41.5,36.2,80,65,53,30.80,30.50,28,8,28,0.04
2013-9-29,57.1,48.8,43.5,46.4,41.0,35.9,86,75,59,30.65,30.29,33,8,33,0.08
2013-9-30,57.3,47.8,41.6,43.7,37.2,29.4,91,69,40,30.81,30.30,28,4,28,0.12
2013-10-1,57.0,44.5,36.2,42.3,36.7,33.2,93,76,45,30.97,30.78,10,0,10,0.04
2013-10-2,53.9,43.1,32.6,38.5,32.7,29.3,92,69,41,31.10,30.78,14,2,14,0.00
2013-10-3,47.5,43.5,40.0,33.0,31.1,28.5,71,62,49,31.29,30.75,29,6,29,0.00
2013-10-4,55.3,41.0,28.4,33.5,28.7,23.7,88,64,35,31.49,31.27,11,0,11,0.00
2013-10-5,64.3,43.0,28.1,38.5,30.4,24.1,91,65,27,31.48,31.18,7,0,7,0.00
2013-10-6,70.0,47.9,30.6,46.3,34.7,26.0,92,62,35,31.27,30.86,7,0,7,0.00
2013-10-7,68.8,48.7,32.8,42.2,34.4,29.0,92,61,28,30.87,30.58,23,2,23,0.00
2013-10-8,54.7,45.7,36.5,37.4,33.7,30.0,85,64,41,30.86,30.66,16,1,16,0.00
2013-10-9,58.2,43.7,34.2,38.8,34.5,30.0,93,73,41,31.00,30.69,8,1,9,0.00
2013-10-10,51.2,39.6,27.8,38.9,33.4,25.1,93,79,59,30.83,30.69,6,0,6,0.00
2013-10-11,56.2,44.1,31.6,36.2,30.4,24.8,84,61,34,31.00,30.79,14,1,14,0.00
2013-10-12,50.0,39.0,29.5,34.6,29.4,24.1,92,70,49,31.06,30.92,8,0,8,0.00
2013-10-13,52.0,41.5,31.5,37.2,32.5,27.8,89,71,53,31.14,30.98,11,1,11,0.00
2013-10-14,53.9,43.7,34.8,35.3,31.6,27.7,81,64,38,31.32,31.09,17,2,17,0.00
2013-10-15,55.6,38.4,25.3,35.0,27.9,21.4,92,68,38,31.43,31.13,7,0,7,0.00
2013-10-16,51.9,36.3,26.9,34.5,28.7,22.2,85,74,45,31.14,31.04,13,1,13,0.00
2013-10-17,48.8,39.3,30.6,37.5,33.2,26.4,91,79,61,31.25,31.02,7,0,7,0.00
2013-10-18,56.2,37.6,24.4,35.9,28.7,21.9,94,73,40,31.38,31.06,9,1,9,0.00
2013-10-19,60.7,42.7,27.5,38.8,28.7,20.9,85,61,31,31.15,30.86,11,0,11,0.00
2013-10-20,63.1,47.4,34.8,37.7,31.5,24.5,78,55,34,31.06,30.88,7,0,7,0.00
2013-10-21,64.0,44.8,30.5,41.9,34.6,26.4,91,69,41,31.21,30.99,7,0,7,0.00
2013-10-22,62.7,43.4,30.5,41.7,34.5,27.6,94,73,43,31.24,30.98,6,0,6,0.00
2013-10-23,61.5,42.2,30.2,37.3,31.6,26.0,92,69,36,31.21,31.00,9,0,9,0.00
2013-10-24,59.9,41.9,27.6,35.8,30.5,22.9,92,67,37,31.23,30.96,8,0,8,0.00
2013-10-25,61.4,41.2,26.3,37.8,31.0,22.7,92,70,38,31.28,31.04,6,0,6,0.00
2013-10-26,60.1,40.2,26.3,36.5,30.2,22.7,92,70,39,31.36,31.02,6,0,6,0.00
2013-10-27,51.9,39.6,25.7,35.0,28.0,20.6,91,65,47,31.02,30.57,35,5,35,0.00
2013-10-28,38.4,32.0,25.3,21.0,17.1,14.4,63,54,49,31.04,30.88,33,16,33,0.00
2013-10-29,41.8,27.5,16.4,21.9,16.8,10.9,83,65,43,31.11,30.91,6,0,6,0.00
2013-10-30,51.9,35.0,22.0,29.1,23.2,16.0,89,64,39,31.08,30.88,9,0,9,0.00
2013-10-31,48.9,42.6,38.8,39.1,32.3,25.1,92,68,48,31.03,30.86,16,2,16,0.07
2013-11-1,56.5,43.2,33.6,40.8,34.1,27.7,92,73,39,31.17,31.01,15,2,16,0.04
2013-11-2,59.6,39.3,31.2,37.7,30.8,22.8,95,74,35,31.01,30.45,28,2,28,0.11
2013-11-3,42.4,36.2,30.4,29.8,25.3,21.2,85,65,44,30.92,30.58,16,2,17,0.01
2013-11-4,40.0,30.9,26.0,28.6,23.8,19.4,92,75,47,31.15,30.89,16,2,16,0.00
2013-11-5,39.0,30.7,21.5,30.4,21.5,14.8,90,70,40,31.25,31.08,22,2,22,0.00
2013-11-6,49.8,38.0,29.9,33.9,29.1,23.1,92,73,36,31.30,31.08,18,2,18,0.00
2013-11-7,53.2,40.9,33.5,42.8,34.9,29.5,90,79,61,31.22,30.60,31,3,31,0.20
2013-11-8,46.7,39.8,35.9,35.5,31.9,27.4,83,73,58,31.06,30.72,18,4,18,0.00
2013-11-9,46.8,36.2,28.0,33.2,28.1,23.1,84,73,49,31.23,31.05,10,1,10,0.00
2013-11-10,44.3,37.5,33.2,37.9,33.6,29.4,92,86,74,31.14,31.02,9,1,9,0.02
2013-11-11,52.1,39.8,30.8,40.3,34.1,28.4,92,81,57,31.37,31.13,10,1,10,0.00
2013-11-12,37.0,32.3,26.4,36.7,30.7,24.4,100,94,90,31.40,31.31,7,0,7,0.00
2013-11-13,54.4,41.9,35.2,41.7,34.0,27.4,95,75,43,31.31,31.12,19,2,19,0.01
2013-11-14,44.2,35.7,29.5,32.7,28.0,24.2,85,74,58,31.13,30.75,6,0,6,0.00
2013-11-15,45.5,38.9,35.2,28.4,25.8,22.5,72,59,41,30.75,30.24,18,2,18,0.00
2013-11-16,41.1,35.9,32.0,33.8,27.4,20.7,96,72,47,30.56,30.12,25,6,25,0.06
2013-11-17,40.9,36.8,31.0,29.2,25.4,22.1,84,64,49,30.90,30.55,21,7,21,0.00
2013-11-18,52.2,39.8,31.6,30.2,25.5,21.7,77,57,38,30.93,30.57,20,4,20,0.00
2013-11-19,52.4,46.6,41.3,40.2,35.5,30.2,92,66,51,30.58,30.43,26,9,26,0.05
2013-11-20,44.7,35.0,22.3,37.9,22.8,12.0,87,62,40,31.31,30.47,23,5,23,0.03
2013-11-21,32.6,21.3,12.3,15.7,10.7,6.8,83,65,38,31.77,31.31,5,0,5,0.00
2013-11-22,31.9,19.4,10.4,16.7,11.5,5.7,85,72,50,31.91,31.71,6,0,6,0.00
2013-11-23,32.5,20.2,11.3,19.0,13.3,7.4,89,75,53,31.80,31.43,6,0,6,0.00
2013-11-24,34.4,23.1,12.5,22.5,16.9,9.0,89,77,57,31.46,31.29,6,0,6,0.00
2013-11-25,37.9,28.2,19.1,25.7,21.0,15.0,87,75,57,31.52,31.31,9,0,9,0.00
2013-11-26,38.4,28.6,19.7,27.1,22.6,16.3,92,79,63,31.46,31.17,6,0,6,0.00
2013-11-27,41.0,29.0,21.5,28.7,23.3,18.4,92,80,59,31.25,31.09,5,0,7,0.00
2013-11-28,34.2,24.4,17.5,27.1,20.7,14.8,98,86,71,31.28,31.14,7,0,7,0.00
2013-11-29,37.9,26.3,16.0,27.6,21.7,13.1,93,83,65,31.37,31.17,7,0,7,0.00
2013-11-30,44.0,37.5,31.3,34.8,30.3,26.4,84,75,66,31.24,31.05,11,1,11,0.00
2013-12-1,44.2,41.6,38.7,38.2,36.0,32.0,92,81,70,31.07,30.55,26,8,26,0.22
2013-12-2,44.2,35.2,22.4,39.4,29.6,18.3,94,80,56,30.81,30.40,24,5,24,0.14
2013-12-3,22.4,15.2,7.9,18.3,4.4,-2.1,86,62,45,31.38,30.81,30,11,30,0.00
2013-12-4,16.1,7.4,0.4,3.4,-1.2,-5.4,87,68,48,31.50,31.36,7,0,7,0.00
2013-12-5,12.6,3.4,-3.5,1.6,-4.0,-9.1,89,71,54,31.56,31.40,5,0,5,0.00
2013-12-6,7.7,1.9,-4.3,0.0,-5.2,-10.9,83,72,57,31.58,31.44,14,1,14,0.00
2013-12-7,4.0,-3.5,-8.7,-8.9,-11.8,-15.2,77,67,52,31.60,31.40,5,0,5,0.00
2013-12-8,4.1,-4.1,-11.0,-1.9,-9.8,-16.6,83,76,68,31.75,31.53,4,0,4,0.00
2013-12-9,17.4,5.1,-7.9,14.4,0.8,-13.2,93,82,76,31.75,31.42,9,1,9,0.00
2013-12-10,33.9,23.2,12.5,18.3,14.7,8.6,88,71,47,31.43,31.32,12,1,12,0.02
2013-12-11,30.3,21.9,15.7,20.3,15.8,11.6,87,78,64,31.52,31.37,6,0,6,0.00
2013-12-12,38.9,26.0,16.0,26.9,19.6,11.3,92,77,58,31.41,31.05,12,1,12,0.00
2013-12-13,42.9,31.2,24.1,31.3,26.1,20.5,89,82,56,31.36,31.03,9,1,9,0.00
2013-12-14,44.0,38.5,31.3,31.4,28.7,23.5,86,68,48,31.37,31.14,13,4,17,0.00
2013-12-15,53.7,46.0,38.6,31.6,25.8,18.0,62,45,33,31.20,31.01,21,5,21,0.00
2013-12-16,51.7,42.3,29.5,28.6,23.6,19.3,66,48,31,31.30,31.08,16,3,16,0.00
2013-12-17,50.0,36.4,23.6,29.2,23.0,18.1,83,60,31,31.28,30.78,18,2,18,0.00
2013-12-18,49.9,44.1,33.2,30.0,24.1,19.4,86,46,31,30.79,30.58,17,2,17,0.00
2013-12-19,33.2,25.9,18.8,29.7,20.4,13.8,92,80,60,31.14,30.66,16,2,16,0.00
2013-12-20,33.7,22.2,14.3,21.1,16.7,10.6,91,80,43,31.07,30.58,13,1,13,0.00
2013-12-21,34.7,28.7,22.7,28.3,23.7,20.5,91,82,70,31.02,30.59,13,1,13,0.07
2013-12-22,34.4,30.8,27.4,29.6,27.1,23.9,89,86,71,31.24,30.93,10,0,10,0.00
2013-12-23,47.8,40.4,31.4,38.3,33.0,22.1,89,75,51,31.21,30.82,26,6,26,0.05
2013-12-24,41.6,35.0,25.9,26.4,22.0,18.5,77,59,42,31.50,31.08,23,2,23,0.00
2013-12-25,33.3,26.6,19.4,22.4,19.0,13.8,87,73,58,31.59,31.37,10,1,10,0.00
2013-12-26,44.1,32.4,23.3,30.0,24.4,18.7,92,73,54,31.44,31.20,10,0,10,0.00
2013-12-27,49.6,33.9,22.6,30.2,24.8,19.3,92,71,36,31.31,30.91,23,1,23,0.00
2013-12-28,46.3,36.7,26.9,28.4,22.7,17.4,68,57,43,31.37,30.92,25,3,25,0.00
2013-12-29,37.3,31.1,23.9,25.2,20.4,16.2,74,65,52,31.39,31.15,15,1,15,0.00
2013-12-30,47.2,38.9,30.5,35.3,29.0,23.0,79,68,51,31.23,30.91,14,3,14,0.00
2013-12-31,44.7,41.3,35.9,35.8,32.3,27.7,78,70,56,31.13,30.86,21,3,21,0.00
2014-1-1,45.1,34.7,27.9,28.4,23.5,20.7,78,65,42,31.39,31.13,9,1,9,0.00
2014-1-2,50.9,37.3,26.5,34.2,26.6,20.7,92,67,42,31.29,30.62,19,3,19,0.00